sensor_id;sensor_type;location;lat;lon;timestamp;P1;durP1;ratioP1;P2;durP2;ratioP2
2680;SDS011;1350;42.134;24.708;2023-04-08T00:00:28;19.38;;;15.95;;
2680;SDS011;1350;42.134;24.708;2023-04-08T00:02:56;21.13;;;15.82;;
2680;SDS011;1350;42.134;24.708;2023-04-08T00:05:23;18.38;;;14.10;;
2680;SDS011;1350;42.134;24.708;2023-04-08T00:07:49;17.02;;;15.02;;
2680;SDS011;1350;42.134;24.708;2023-04-08T00:10:16;17.77;;;14.18;;
2680;SDS011;1350;42.134;24.708;2023-04-08T00:12:44;21.00;;;17.00;;
2680;SDS011;1350;42.134;24.708;2023-04-08T00:15:10;17.98;;;14.35;;
2680;SDS011;1350;42.134;24.708;2023-04-08T00:17:37;16.85;;;14.00;;
2680;SDS011;1350;42.134;24.708;2023-04-08T00:20:06;20.08;;;15.05;;
2680;SDS011;1350;42.134;24.708;2023-04-08T00:22:34;18.77;;;15.25;;
2680;SDS011;1350;42.134;24.708;2023-04-08T00:25:00;18.75;;;13.68;;
2680;SDS011;1350;42.134;24.708;2023-04-08T00:27:30;17.65;;;13.23;;
2680;SDS011;1350;42.134;24.708;2023-04-08T00:29:57;15.50;;;13.35;;
2680;SDS011;1350;42.134;24.708;2023-04-08T00:32:25;14.77;;;12.38;;
2680;SDS011;1350;42.134;24.708;2023-04-08T00:34:53;23.42;;;14.65;;
2680;SDS011;1350;42.134;24.708;2023-04-08T00:37:21;18.48;;;14.13;;
2680;SDS011;1350;42.134;24.708;2023-04-08T00:39:49;19.50;;;13.68;;
2680;SDS011;1350;42.134;24.708;2023-04-08T00:42:18;22.02;;;13.60;;
2680;SDS011;1350;42.134;24.708;2023-04-08T00:44:45;19.85;;;14.10;;
2680;SDS011;1350;42.134;24.708;2023-04-08T00:47:12;21.27;;;14.73;;
2680;SDS011;1350;42.134;24.708;2023-04-08T00:49:39;21.48;;;14.57;;
2680;SDS011;1350;42.134;24.708;2023-04-08T00:52:06;20.58;;;14.98;;
2680;SDS011;1350;42.134;24.708;2023-04-08T00:54:35;22.65;;;15.73;;
2680;SDS011;1350;42.134;24.708;2023-04-08T00:57:02;17.58;;;14.93;;
2680;SDS011;1350;42.134;24.708;2023-04-08T00:59:29;22.67;;;17.70;;
2680;SDS011;1350;42.134;24.708;2023-04-08T01:01:58;21.42;;;16.50;;
2680;SDS011;1350;42.134;24.708;2023-04-08T01:04:32;22.85;;;17.92;;
2680;SDS011;1350;42.134;24.708;2023-04-08T01:07:11;20.05;;;14.45;;
2680;SDS011;1350;42.134;24.708;2023-04-08T01:09:44;22.33;;;17.05;;
2680;SDS011;1350;42.134;24.708;2023-04-08T01:12:17;21.33;;;16.60;;
2680;SDS011;1350;42.134;24.708;2023-04-08T01:14:47;22.05;;;18.23;;
2680;SDS011;1350;42.134;24.708;2023-04-08T01:17:17;22.92;;;17.67;;
2680;SDS011;1350;42.134;24.708;2023-04-08T01:19:46;20.45;;;16.25;;
2680;SDS011;1350;42.134;24.708;2023-04-08T01:22:18;21.55;;;17.58;;
2680;SDS011;1350;42.134;24.708;2023-04-08T01:24:55;21.85;;;16.55;;
2680;SDS011;1350;42.134;24.708;2023-04-08T01:27:27;25.60;;;18.00;;
2680;SDS011;1350;42.134;24.708;2023-04-08T01:29:57;28.23;;;18.20;;
2680;SDS011;1350;42.134;24.708;2023-04-08T01:32:26;20.08;;;17.42;;
2680;SDS011;1350;42.134;24.708;2023-04-08T01:34:54;22.52;;;16.50;;
2680;SDS011;1350;42.134;24.708;2023-04-08T01:37:22;23.92;;;17.63;;
2680;SDS011;1350;42.134;24.708;2023-04-08T01:39:51;24.10;;;19.58;;
2680;SDS011;1350;42.134;24.708;2023-04-08T01:42:21;21.98;;;17.38;;
2680;SDS011;1350;42.134;24.708;2023-04-08T01:44:51;27.88;;;19.20;;
2680;SDS011;1350;42.134;24.708;2023-04-08T01:47:18;31.98;;;20.20;;
2680;SDS011;1350;42.134;24.708;2023-04-08T01:49:45;22.20;;;17.85;;
2680;SDS011;1350;42.134;24.708;2023-04-08T01:52:12;24.90;;;18.98;;
2680;SDS011;1350;42.134;24.708;2023-04-08T01:54:41;28.20;;;19.75;;
2680;SDS011;1350;42.134;24.708;2023-04-08T01:57:08;25.25;;;19.45;;
2680;SDS011;1350;42.134;24.708;2023-04-08T01:59:39;25.92;;;18.58;;
2680;SDS011;1350;42.134;24.708;2023-04-08T02:02:09;27.00;;;19.50;;
2680;SDS011;1350;42.134;24.708;2023-04-08T02:04:37;24.63;;;19.60;;
2680;SDS011;1350;42.134;24.708;2023-04-08T02:07:04;23.95;;;19.15;;
2680;SDS011;1350;42.134;24.708;2023-04-08T02:09:31;24.88;;;19.20;;
2680;SDS011;1350;42.134;24.708;2023-04-08T02:11:58;28.10;;;19.25;;
2680;SDS011;1350;42.134;24.708;2023-04-08T02:14:25;28.60;;;19.92;;
2680;SDS011;1350;42.134;24.708;2023-04-08T02:16:53;31.40;;;21.65;;
2680;SDS011;1350;42.134;24.708;2023-04-08T02:19:27;28.20;;;20.48;;
2680;SDS011;1350;42.134;24.708;2023-04-08T02:21:56;31.02;;;24.52;;
2680;SDS011;1350;42.134;24.708;2023-04-08T02:24:27;30.25;;;20.92;;
2680;SDS011;1350;42.134;24.708;2023-04-08T02:26:55;27.88;;;20.17;;
2680;SDS011;1350;42.134;24.708;2023-04-08T02:29:23;25.48;;;19.70;;
2680;SDS011;1350;42.134;24.708;2023-04-08T02:31:51;28.17;;;22.63;;
2680;SDS011;1350;42.134;24.708;2023-04-08T02:34:19;35.53;;;23.10;;
2680;SDS011;1350;42.134;24.708;2023-04-08T02:36:48;28.88;;;21.08;;
2680;SDS011;1350;42.134;24.708;2023-04-08T02:39:16;30.90;;;22.38;;
2680;SDS011;1350;42.134;24.708;2023-04-08T02:41:42;29.85;;;23.08;;
2680;SDS011;1350;42.134;24.708;2023-04-08T02:44:09;27.85;;;21.08;;
2680;SDS011;1350;42.134;24.708;2023-04-08T02:46:36;31.73;;;23.48;;
2680;SDS011;1350;42.134;24.708;2023-04-08T02:49:03;30.85;;;20.38;;
2680;SDS011;1350;42.134;24.708;2023-04-08T02:51:29;29.25;;;20.88;;
2680;SDS011;1350;42.134;24.708;2023-04-08T02:53:58;32.10;;;23.15;;
2680;SDS011;1350;42.134;24.708;2023-04-08T02:56:25;25.88;;;20.83;;
2680;SDS011;1350;42.134;24.708;2023-04-08T02:58:52;32.90;;;22.80;;
2680;SDS011;1350;42.134;24.708;2023-04-08T03:01:19;33.28;;;21.63;;
2680;SDS011;1350;42.134;24.708;2023-04-08T03:03:46;29.38;;;21.80;;
2680;SDS011;1350;42.134;24.708;2023-04-08T03:06:12;39.78;;;22.75;;
2680;SDS011;1350;42.134;24.708;2023-04-08T03:08:39;30.23;;;22.60;;
2680;SDS011;1350;42.134;24.708;2023-04-08T03:11:07;33.90;;;24.33;;
2680;SDS011;1350;42.134;24.708;2023-04-08T03:13:34;31.67;;;22.35;;
2680;SDS011;1350;42.134;24.708;2023-04-08T03:16:01;38.58;;;23.67;;
2680;SDS011;1350;42.134;24.708;2023-04-08T03:18:27;29.23;;;22.00;;
2680;SDS011;1350;42.134;24.708;2023-04-08T03:20:54;33.80;;;21.40;;
2680;SDS011;1350;42.134;24.708;2023-04-08T03:23:21;35.58;;;24.65;;
2680;SDS011;1350;42.134;24.708;2023-04-08T03:25:48;28.42;;;22.23;;
2680;SDS011;1350;42.134;24.708;2023-04-08T03:28:16;30.63;;;22.75;;
2680;SDS011;1350;42.134;24.708;2023-04-08T03:30:42;32.90;;;25.33;;
2680;SDS011;1350;42.134;24.708;2023-04-08T03:33:09;31.88;;;24.42;;
2680;SDS011;1350;42.134;24.708;2023-04-08T03:35:36;31.02;;;23.15;;
2680;SDS011;1350;42.134;24.708;2023-04-08T03:38:03;33.70;;;23.25;;
2680;SDS011;1350;42.134;24.708;2023-04-08T03:40:29;31.08;;;24.35;;
2680;SDS011;1350;42.134;24.708;2023-04-08T03:42:56;35.55;;;24.75;;
2680;SDS011;1350;42.134;24.708;2023-04-08T03:45:24;32.42;;;22.95;;
2680;SDS011;1350;42.134;24.708;2023-04-08T03:47:51;37.55;;;25.42;;
2680;SDS011;1350;42.134;24.708;2023-04-08T03:50:18;29.00;;;24.55;;
2680;SDS011;1350;42.134;24.708;2023-04-08T03:52:45;35.38;;;24.60;;
2680;SDS011;1350;42.134;24.708;2023-04-08T03:55:11;35.90;;;26.27;;
2680;SDS011;1350;42.134;24.708;2023-04-08T03:57:38;35.72;;;23.15;;
2680;SDS011;1350;42.134;24.708;2023-04-08T04:00:05;35.65;;;22.73;;
2680;SDS011;1350;42.134;24.708;2023-04-08T04:02:34;32.97;;;23.73;;
2680;SDS011;1350;42.134;24.708;2023-04-08T04:05:01;38.72;;;25.15;;
2680;SDS011;1350;42.134;24.708;2023-04-08T04:07:28;34.70;;;25.88;;
2680;SDS011;1350;42.134;24.708;2023-04-08T04:09:54;36.25;;;25.08;;
2680;SDS011;1350;42.134;24.708;2023-04-08T04:12:21;34.10;;;24.27;;
2680;SDS011;1350;42.134;24.708;2023-04-08T04:14:48;43.97;;;25.48;;
2680;SDS011;1350;42.134;24.708;2023-04-08T04:17:15;34.38;;;25.52;;
2680;SDS011;1350;42.134;24.708;2023-04-08T04:19:43;38.88;;;26.55;;
2680;SDS011;1350;42.134;24.708;2023-04-08T04:22:10;43.45;;;26.65;;
2680;SDS011;1350;42.134;24.708;2023-04-08T04:24:36;33.50;;;24.70;;
2680;SDS011;1350;42.134;24.708;2023-04-08T04:27:03;41.90;;;26.08;;
2680;SDS011;1350;42.134;24.708;2023-04-08T04:29:30;36.67;;;25.08;;
2680;SDS011;1350;42.134;24.708;2023-04-08T04:31:57;33.45;;;23.77;;
2680;SDS011;1350;42.134;24.708;2023-04-08T04:34:23;44.83;;;27.63;;
2680;SDS011;1350;42.134;24.708;2023-04-08T04:36:51;35.80;;;25.33;;
2680;SDS011;1350;42.134;24.708;2023-04-08T04:39:18;39.60;;;24.85;;
2680;SDS011;1350;42.134;24.708;2023-04-08T04:41:45;36.45;;;26.67;;
2680;SDS011;1350;42.134;24.708;2023-04-08T04:44:13;36.30;;;23.98;;
2680;SDS011;1350;42.134;24.708;2023-04-08T04:46:40;34.53;;;23.83;;
2680;SDS011;1350;42.134;24.708;2023-04-08T04:49:06;39.90;;;28.23;;
2680;SDS011;1350;42.134;24.708;2023-04-08T04:51:33;34.35;;;25.17;;
2680;SDS011;1350;42.134;24.708;2023-04-08T04:54:01;43.83;;;27.15;;
2680;SDS011;1350;42.134;24.708;2023-04-08T04:56:28;42.70;;;28.77;;
2680;SDS011;1350;42.134;24.708;2023-04-08T04:58:55;36.88;;;26.42;;
2680;SDS011;1350;42.134;24.708;2023-04-08T05:01:21;38.75;;;26.95;;
2680;SDS011;1350;42.134;24.708;2023-04-08T05:03:48;38.85;;;27.45;;
2680;SDS011;1350;42.134;24.708;2023-04-08T05:06:15;36.97;;;26.13;;
2680;SDS011;1350;42.134;24.708;2023-04-08T05:08:42;38.97;;;27.27;;
2680;SDS011;1350;42.134;24.708;2023-04-08T05:11:10;44.20;;;30.40;;
2680;SDS011;1350;42.134;24.708;2023-04-08T05:13:36;37.97;;;27.30;;
2680;SDS011;1350;42.134;24.708;2023-04-08T05:16:03;43.78;;;29.60;;
2680;SDS011;1350;42.134;24.708;2023-04-08T05:18:30;46.65;;;31.17;;
2680;SDS011;1350;42.134;24.708;2023-04-08T05:20:57;42.33;;;29.17;;
2680;SDS011;1350;42.134;24.708;2023-04-08T05:23:24;58.17;;;30.25;;
2680;SDS011;1350;42.134;24.708;2023-04-08T05:25:50;49.70;;;30.75;;
2680;SDS011;1350;42.134;24.708;2023-04-08T05:28:18;42.75;;;26.92;;
2680;SDS011;1350;42.134;24.708;2023-04-08T05:30:47;41.58;;;30.50;;
2680;SDS011;1350;42.134;24.708;2023-04-08T05:33:14;47.58;;;29.08;;
2680;SDS011;1350;42.134;24.708;2023-04-08T05:35:41;46.65;;;28.55;;
2680;SDS011;1350;42.134;24.708;2023-04-08T05:38:08;45.97;;;27.58;;
2680;SDS011;1350;42.134;24.708;2023-04-08T05:40:34;44.45;;;30.13;;
2680;SDS011;1350;42.134;24.708;2023-04-08T05:43:01;44.55;;;28.58;;
2680;SDS011;1350;42.134;24.708;2023-04-08T05:45:29;45.80;;;28.25;;
2680;SDS011;1350;42.134;24.708;2023-04-08T05:47:56;54.97;;;29.33;;
2680;SDS011;1350;42.134;24.708;2023-04-08T05:50:23;47.40;;;27.27;;
2680;SDS011;1350;42.134;24.708;2023-04-08T05:52:49;53.03;;;32.53;;
2680;SDS011;1350;42.134;24.708;2023-04-08T05:55:16;45.25;;;28.05;;
2680;SDS011;1350;42.134;24.708;2023-04-08T05:57:43;46.08;;;30.20;;
2680;SDS011;1350;42.134;24.708;2023-04-08T06:00:10;41.42;;;29.08;;
2680;SDS011;1350;42.134;24.708;2023-04-08T06:02:38;45.20;;;32.22;;
2680;SDS011;1350;42.134;24.708;2023-04-08T06:05:05;56.08;;;31.52;;
2680;SDS011;1350;42.134;24.708;2023-04-08T06:07:33;42.60;;;29.42;;
2680;SDS011;1350;42.134;24.708;2023-04-08T06:10:00;41.22;;;28.63;;
2680;SDS011;1350;42.134;24.708;2023-04-08T06:12:26;44.05;;;29.55;;
2680;SDS011;1350;42.134;24.708;2023-04-08T06:14:53;43.75;;;30.13;;
2680;SDS011;1350;42.134;24.708;2023-04-08T06:17:21;42.47;;;27.88;;
2680;SDS011;1350;42.134;24.708;2023-04-08T06:19:49;44.90;;;30.63;;
2680;SDS011;1350;42.134;24.708;2023-04-08T06:22:15;44.67;;;29.17;;
2680;SDS011;1350;42.134;24.708;2023-04-08T06:24:42;46.35;;;31.02;;
2680;SDS011;1350;42.134;24.708;2023-04-08T06:27:09;45.70;;;29.92;;
2680;SDS011;1350;42.134;24.708;2023-04-08T06:29:36;48.03;;;31.30;;
2680;SDS011;1350;42.134;24.708;2023-04-08T06:32:02;40.03;;;26.88;;
2680;SDS011;1350;42.134;24.708;2023-04-08T06:34:30;40.65;;;27.35;;
2680;SDS011;1350;42.134;24.708;2023-04-08T06:36:58;40.00;;;26.55;;
2680;SDS011;1350;42.134;24.708;2023-04-08T06:39:24;37.65;;;28.92;;
2680;SDS011;1350;42.134;24.708;2023-04-08T06:41:54;44.15;;;31.02;;
2680;SDS011;1350;42.134;24.708;2023-04-08T06:44:22;40.13;;;29.95;;
2680;SDS011;1350;42.134;24.708;2023-04-08T06:46:49;41.20;;;29.05;;
2680;SDS011;1350;42.134;24.708;2023-04-08T06:49:16;44.13;;;29.20;;
2680;SDS011;1350;42.134;24.708;2023-04-08T06:51:42;53.63;;;30.52;;
2680;SDS011;1350;42.134;24.708;2023-04-08T06:54:10;43.05;;;27.38;;
2680;SDS011;1350;42.134;24.708;2023-04-08T06:56:37;35.38;;;25.90;;
2680;SDS011;1350;42.134;24.708;2023-04-08T06:59:04;39.85;;;28.20;;
2680;SDS011;1350;42.134;24.708;2023-04-08T07:01:31;41.20;;;27.20;;
2680;SDS011;1350;42.134;24.708;2023-04-08T07:03:57;52.63;;;30.20;;
2680;SDS011;1350;42.134;24.708;2023-04-08T07:06:26;38.58;;;27.27;;
2680;SDS011;1350;42.134;24.708;2023-04-08T07:08:53;40.13;;;28.08;;
2680;SDS011;1350;42.134;24.708;2023-04-08T07:11:21;39.28;;;29.50;;
2680;SDS011;1350;42.134;24.708;2023-04-08T07:13:47;39.55;;;26.35;;
2680;SDS011;1350;42.134;24.708;2023-04-08T07:16:14;39.50;;;28.13;;
2680;SDS011;1350;42.134;24.708;2023-04-08T07:18:41;31.38;;;24.75;;
2680;SDS011;1350;42.134;24.708;2023-04-08T07:21:08;37.38;;;26.35;;
2680;SDS011;1350;42.134;24.708;2023-04-08T07:23:34;40.08;;;26.98;;
2680;SDS011;1350;42.134;24.708;2023-04-08T07:26:02;35.72;;;25.52;;
2680;SDS011;1350;42.134;24.708;2023-04-08T07:28:30;35.95;;;25.25;;
2680;SDS011;1350;42.134;24.708;2023-04-08T07:31:06;33.63;;;25.70;;
2680;SDS011;1350;42.134;24.708;2023-04-08T07:33:37;31.50;;;23.70;;
2680;SDS011;1350;42.134;24.708;2023-04-08T07:36:04;72.38;;;50.70;;
2680;SDS011;1350;42.134;24.708;2023-04-08T07:38:31;39.85;;;26.58;;
2680;SDS011;1350;42.134;24.708;2023-04-08T07:40:58;30.90;;;24.48;;
2680;SDS011;1350;42.134;24.708;2023-04-08T07:43:24;33.35;;;23.38;;
2680;SDS011;1350;42.134;24.708;2023-04-08T07:45:52;35.58;;;26.25;;
2680;SDS011;1350;42.134;24.708;2023-04-08T07:48:19;37.25;;;26.55;;
2680;SDS011;1350;42.134;24.708;2023-04-08T07:50:46;31.70;;;24.73;;
2680;SDS011;1350;42.134;24.708;2023-04-08T07:53:13;34.75;;;24.08;;
2680;SDS011;1350;42.134;24.708;2023-04-08T07:55:47;31.13;;;23.00;;
2680;SDS011;1350;42.134;24.708;2023-04-08T07:58:14;38.75;;;26.00;;
2680;SDS011;1350;42.134;24.708;2023-04-08T08:00:41;40.30;;;27.42;;
2680;SDS011;1350;42.134;24.708;2023-04-08T08:03:09;33.55;;;25.80;;
2680;SDS011;1350;42.134;24.708;2023-04-08T08:05:36;30.58;;;23.63;;
2680;SDS011;1350;42.134;24.708;2023-04-08T08:08:03;30.42;;;23.67;;
2680;SDS011;1350;42.134;24.708;2023-04-08T08:10:31;36.78;;;25.27;;
2680;SDS011;1350;42.134;24.708;2023-04-08T08:12:58;31.15;;;23.25;;
2680;SDS011;1350;42.134;24.708;2023-04-08T08:15:25;30.25;;;22.35;;
2680;SDS011;1350;42.134;24.708;2023-04-08T08:17:51;28.67;;;23.45;;
2680;SDS011;1350;42.134;24.708;2023-04-08T08:20:19;37.95;;;30.52;;
2680;SDS011;1350;42.134;24.708;2023-04-08T08:22:46;29.63;;;24.15;;
2680;SDS011;1350;42.134;24.708;2023-04-08T08:25:13;31.67;;;24.00;;
2680;SDS011;1350;42.134;24.708;2023-04-08T08:27:40;35.45;;;23.77;;
2680;SDS011;1350;42.134;24.708;2023-04-08T08:30:07;27.77;;;20.42;;
2680;SDS011;1350;42.134;24.708;2023-04-08T08:32:34;30.45;;;24.55;;
2680;SDS011;1350;42.134;24.708;2023-04-08T08:35:01;30.03;;;21.10;;
2680;SDS011;1350;42.134;24.708;2023-04-08T08:37:29;27.58;;;22.70;;
2680;SDS011;1350;42.134;24.708;2023-04-08T08:39:56;32.78;;;25.52;;
2680;SDS011;1350;42.134;24.708;2023-04-08T08:42:23;31.73;;;23.98;;
2680;SDS011;1350;42.134;24.708;2023-04-08T08:44:51;30.43;;;23.73;;
2680;SDS011;1350;42.134;24.708;2023-04-08T08:47:17;31.17;;;24.70;;
2680;SDS011;1350;42.134;24.708;2023-04-08T08:49:44;31.20;;;25.10;;
2680;SDS011;1350;42.134;24.708;2023-04-08T08:52:14;31.33;;;22.60;;
2680;SDS011;1350;42.134;24.708;2023-04-08T08:54:43;31.70;;;25.40;;
2680;SDS011;1350;42.134;24.708;2023-04-08T08:57:16;28.40;;;21.87;;
2680;SDS011;1350;42.134;24.708;2023-04-08T08:59:44;26.58;;;22.70;;
2680;SDS011;1350;42.134;24.708;2023-04-08T09:02:22;25.52;;;22.15;;
2680;SDS011;1350;42.134;24.708;2023-04-08T09:04:54;30.83;;;24.15;;
2680;SDS011;1350;42.134;24.708;2023-04-08T09:07:23;30.67;;;24.20;;
2680;SDS011;1350;42.134;24.708;2023-04-08T09:09:53;29.25;;;24.20;;
2680;SDS011;1350;42.134;24.708;2023-04-08T09:12:20;30.85;;;22.63;;
2680;SDS011;1350;42.134;24.708;2023-04-08T09:14:47;32.55;;;23.58;;
2680;SDS011;1350;42.134;24.708;2023-04-08T09:17:14;33.92;;;22.15;;
2680;SDS011;1350;42.134;24.708;2023-04-08T09:25:26;29.30;;;22.33;;
2680;SDS011;1350;42.134;24.708;2023-04-08T09:27:54;26.67;;;21.00;;
2680;SDS011;1350;42.134;24.708;2023-04-08T09:30:22;27.40;;;21.13;;
2680;SDS011;1350;42.134;24.708;2023-04-08T09:32:50;34.10;;;23.58;;
2680;SDS011;1350;42.134;24.708;2023-04-08T09:35:18;28.02;;;22.00;;
2680;SDS011;1350;42.134;24.708;2023-04-08T09:37:46;23.83;;;18.90;;
2680;SDS011;1350;42.134;24.708;2023-04-08T09:40:15;27.85;;;19.58;;
2680;SDS011;1350;42.134;24.708;2023-04-08T09:42:47;23.38;;;19.35;;
2680;SDS011;1350;42.134;24.708;2023-04-08T09:45:16;24.13;;;19.60;;
2680;SDS011;1350;42.134;24.708;2023-04-08T09:47:49;28.60;;;21.25;;
2680;SDS011;1350;42.134;24.708;2023-04-08T09:50:22;22.17;;;19.73;;
2680;SDS011;1350;42.134;24.708;2023-04-08T09:52:52;24.57;;;19.97;;
2680;SDS011;1350;42.134;24.708;2023-04-08T09:55:26;25.10;;;19.70;;
2680;SDS011;1350;42.134;24.708;2023-04-08T09:57:58;29.80;;;22.50;;
2680;SDS011;1350;42.134;24.708;2023-04-08T10:00:29;25.00;;;20.85;;
2680;SDS011;1350;42.134;24.708;2023-04-08T10:03:00;24.17;;;19.97;;
2680;SDS011;1350;42.134;24.708;2023-04-08T10:05:32;26.95;;;20.65;;
2680;SDS011;1350;42.134;24.708;2023-04-08T10:08:02;26.10;;;20.58;;
2680;SDS011;1350;42.134;24.708;2023-04-08T10:10:31;20.58;;;17.88;;
2680;SDS011;1350;42.134;24.708;2023-04-08T10:13:00;26.47;;;19.87;;
2680;SDS011;1350;42.134;24.708;2023-04-08T10:15:28;25.53;;;19.27;;
2680;SDS011;1350;42.134;24.708;2023-04-08T10:17:56;23.30;;;17.80;;
2680;SDS011;1350;42.134;24.708;2023-04-08T10:20:58;25.50;;;20.70;;
2680;SDS011;1350;42.134;24.708;2023-04-08T10:26:30;22.03;;;17.00;;
2680;SDS011;1350;42.134;24.708;2023-04-08T10:32:03;28.40;;;19.33;;
2680;SDS011;1350;42.134;24.708;2023-04-08T10:34:30;24.40;;;20.13;;
2680;SDS011;1350;42.134;24.708;2023-04-08T10:36:57;25.20;;;21.33;;
2680;SDS011;1350;42.134;24.708;2023-04-08T10:39:26;26.38;;;20.77;;
2680;SDS011;1350;42.134;24.708;2023-04-08T10:41:53;25.80;;;22.43;;
2680;SDS011;1350;42.134;24.708;2023-04-08T10:44:20;23.90;;;20.80;;
2680;SDS011;1350;42.134;24.708;2023-04-08T10:46:48;28.03;;;22.27;;
2680;SDS011;1350;42.134;24.708;2023-04-08T10:49:18;25.77;;;21.57;;
2680;SDS011;1350;42.134;24.708;2023-04-08T10:51:46;23.50;;;19.88;;
2680;SDS011;1350;42.134;24.708;2023-04-08T10:54:13;25.67;;;22.20;;
2680;SDS011;1350;42.134;24.708;2023-04-08T10:56:45;32.97;;;25.20;;
2680;SDS011;1350;42.134;24.708;2023-04-08T10:59:13;26.60;;;20.87;;
2680;SDS011;1350;42.134;24.708;2023-04-08T11:01:42;28.77;;;22.95;;
2680;SDS011;1350;42.134;24.708;2023-04-08T11:04:10;30.23;;;23.02;;
2680;SDS011;1350;42.134;24.708;2023-04-08T11:06:40;26.48;;;22.55;;
2680;SDS011;1350;42.134;24.708;2023-04-08T11:09:08;28.30;;;23.85;;
2680;SDS011;1350;42.134;24.708;2023-04-08T11:11:35;30.33;;;22.13;;
2680;SDS011;1350;42.134;24.708;2023-04-08T11:14:02;29.60;;;24.30;;
2680;SDS011;1350;42.134;24.708;2023-04-08T11:16:29;25.33;;;22.50;;
2680;SDS011;1350;42.134;24.708;2023-04-08T11:18:56;29.80;;;21.43;;
2680;SDS011;1350;42.134;24.708;2023-04-08T11:21:23;26.30;;;22.07;;
2680;SDS011;1350;42.134;24.708;2023-04-08T11:23:54;28.67;;;21.60;;
2680;SDS011;1350;42.134;24.708;2023-04-08T11:26:21;25.33;;;21.77;;
2680;SDS011;1350;42.134;24.708;2023-04-08T11:28:48;28.37;;;21.87;;
2680;SDS011;1350;42.134;24.708;2023-04-08T11:31:16;24.88;;;21.30;;
2680;SDS011;1350;42.134;24.708;2023-04-08T11:33:44;30.63;;;21.13;;
2680;SDS011;1350;42.134;24.708;2023-04-08T11:36:12;27.93;;;18.83;;
2680;SDS011;1350;42.134;24.708;2023-04-08T11:38:40;23.60;;;18.80;;
2680;SDS011;1350;42.134;24.708;2023-04-08T11:41:08;20.88;;;17.38;;
2680;SDS011;1350;42.134;24.708;2023-04-08T11:43:36;21.07;;;18.57;;
2680;SDS011;1350;42.134;24.708;2023-04-08T11:46:08;25.30;;;18.27;;
2680;SDS011;1350;42.134;24.708;2023-04-08T11:48:36;25.50;;;19.67;;
2680;SDS011;1350;42.134;24.708;2023-04-08T11:51:04;29.02;;;17.45;;
2680;SDS011;1350;42.134;24.708;2023-04-08T11:53:33;18.50;;;16.43;;
2680;SDS011;1350;42.134;24.708;2023-04-08T11:56:18;19.38;;;16.40;;
2680;SDS011;1350;42.134;24.708;2023-04-08T11:58:46;20.67;;;18.00;;
2680;SDS011;1350;42.134;24.708;2023-04-08T12:01:14;23.05;;;16.67;;
2680;SDS011;1350;42.134;24.708;2023-04-08T12:03:52;20.33;;;17.48;;
2680;SDS011;1350;42.134;24.708;2023-04-08T12:06:28;23.50;;;15.37;;
2680;SDS011;1350;42.134;24.708;2023-04-08T12:08:56;17.97;;;16.00;;
2680;SDS011;1350;42.134;24.708;2023-04-08T12:11:25;20.10;;;15.30;;
2680;SDS011;1350;42.134;24.708;2023-04-08T12:13:51;24.93;;;16.53;;
2680;SDS011;1350;42.134;24.708;2023-04-08T12:16:18;17.03;;;14.77;;
2680;SDS011;1350;42.134;24.708;2023-04-08T12:18:45;20.90;;;15.90;;
2680;SDS011;1350;42.134;24.708;2023-04-08T12:21:12;17.10;;;15.27;;
2680;SDS011;1350;42.134;24.708;2023-04-08T12:23:39;18.17;;;16.27;;
2680;SDS011;1350;42.134;24.708;2023-04-08T12:26:05;20.47;;;16.07;;
2680;SDS011;1350;42.134;24.708;2023-04-08T12:28:34;18.93;;;16.30;;
2680;SDS011;1350;42.134;24.708;2023-04-08T12:31:01;21.70;;;16.30;;
2680;SDS011;1350;42.134;24.708;2023-04-08T12:33:28;19.52;;;15.15;;
2680;SDS011;1350;42.134;24.708;2023-04-08T12:35:55;21.07;;;18.17;;
2680;SDS011;1350;42.134;24.708;2023-04-08T12:38:23;18.07;;;14.80;;
2680;SDS011;1350;42.134;24.708;2023-04-08T12:40:50;22.83;;;15.80;;
2680;SDS011;1350;42.134;24.708;2023-04-08T12:43:17;20.80;;;16.27;;
2680;SDS011;1350;42.134;24.708;2023-04-08T12:45:45;18.43;;;14.53;;
2680;SDS011;1350;42.134;24.708;2023-04-08T12:48:12;16.60;;;14.53;;
2680;SDS011;1350;42.134;24.708;2023-04-08T12:50:39;19.40;;;15.37;;
2680;SDS011;1350;42.134;24.708;2023-04-08T12:53:06;18.00;;;15.47;;
2680;SDS011;1350;42.134;24.708;2023-04-08T12:55:32;20.10;;;17.13;;
2680;SDS011;1350;42.134;24.708;2023-04-08T12:57:59;20.83;;;15.07;;
2680;SDS011;1350;42.134;24.708;2023-04-08T13:00:26;19.93;;;16.43;;
2680;SDS011;1350;42.134;24.708;2023-04-08T13:02:54;21.33;;;13.80;;
2680;SDS011;1350;42.134;24.708;2023-04-08T13:05:21;16.37;;;12.60;;
2680;SDS011;1350;42.134;24.708;2023-04-08T13:07:47;17.40;;;14.95;;
2680;SDS011;1350;42.134;24.708;2023-04-08T13:10:14;18.60;;;15.20;;
2680;SDS011;1350;42.134;24.708;2023-04-08T13:12:41;17.07;;;13.97;;
2680;SDS011;1350;42.134;24.708;2023-04-08T13:15:08;18.70;;;14.40;;
2680;SDS011;1350;42.134;24.708;2023-04-08T13:17:36;15.73;;;13.13;;
2680;SDS011;1350;42.134;24.708;2023-04-08T13:20:05;17.52;;;13.88;;
2680;SDS011;1350;42.134;24.708;2023-04-08T13:22:34;18.13;;;13.85;;
2680;SDS011;1350;42.134;24.708;2023-04-08T13:25:00;19.50;;;13.77;;
2680;SDS011;1350;42.134;24.708;2023-04-08T13:27:30;19.13;;;14.17;;
2680;SDS011;1350;42.134;24.708;2023-04-08T13:29:56;18.20;;;12.83;;
2680;SDS011;1350;42.134;24.708;2023-04-08T13:32:23;18.40;;;14.67;;
2680;SDS011;1350;42.134;24.708;2023-04-08T13:34:50;17.70;;;13.35;;
2680;SDS011;1350;42.134;24.708;2023-04-08T13:37:18;17.47;;;12.33;;
2680;SDS011;1350;42.134;24.708;2023-04-08T13:39:45;41.00;;;33.17;;
2680;SDS011;1350;42.134;24.708;2023-04-08T13:42:12;16.37;;;13.27;;
2680;SDS011;1350;42.134;24.708;2023-04-08T13:44:38;20.30;;;12.57;;
2680;SDS011;1350;42.134;24.708;2023-04-08T13:47:05;16.40;;;13.53;;
2680;SDS011;1350;42.134;24.708;2023-04-08T13:49:32;16.50;;;12.37;;
2680;SDS011;1350;42.134;24.708;2023-04-08T13:51:59;15.30;;;13.07;;
2680;SDS011;1350;42.134;24.708;2023-04-08T13:54:27;17.43;;;12.47;;
2680;SDS011;1350;42.134;24.708;2023-04-08T13:56:53;17.43;;;13.53;;
2680;SDS011;1350;42.134;24.708;2023-04-08T13:59:21;15.00;;;11.80;;
2680;SDS011;1350;42.134;24.708;2023-04-08T14:01:48;15.15;;;9.27;;
2680;SDS011;1350;42.134;24.708;2023-04-08T14:04:17;16.13;;;11.00;;
2680;SDS011;1350;42.134;24.708;2023-04-08T14:06:44;13.88;;;10.00;;
2680;SDS011;1350;42.134;24.708;2023-04-08T14:09:11;13.60;;;10.20;;
2680;SDS011;1350;42.134;24.708;2023-04-08T14:11:39;12.27;;;8.93;;
2680;SDS011;1350;42.134;24.708;2023-04-08T14:14:06;11.05;;;7.78;;
2680;SDS011;1350;42.134;24.708;2023-04-08T14:16:32;16.93;;;8.23;;
2680;SDS011;1350;42.134;24.708;2023-04-08T14:19:00;26.25;;;8.48;;
2680;SDS011;1350;42.134;24.708;2023-04-08T14:21:27;10.80;;;7.95;;
2680;SDS011;1350;42.134;24.708;2023-04-08T14:23:55;14.45;;;7.38;;
2680;SDS011;1350;42.134;24.708;2023-04-08T14:26:22;9.95;;;7.30;;
2680;SDS011;1350;42.134;24.708;2023-04-08T14:28:51;10.68;;;7.43;;
2680;SDS011;1350;42.134;24.708;2023-04-08T14:31:17;12.48;;;8.10;;
2680;SDS011;1350;42.134;24.708;2023-04-08T14:33:44;11.90;;;8.43;;
2680;SDS011;1350;42.134;24.708;2023-04-08T14:36:11;9.77;;;7.30;;
2680;SDS011;1350;42.134;24.708;2023-04-08T14:38:38;10.48;;;7.70;;
2680;SDS011;1350;42.134;24.708;2023-04-08T14:41:04;11.13;;;7.45;;
2680;SDS011;1350;42.134;24.708;2023-04-08T14:43:31;14.50;;;8.65;;
2680;SDS011;1350;42.134;24.708;2023-04-08T14:45:59;12.32;;;9.20;;
2680;SDS011;1350;42.134;24.708;2023-04-08T14:48:26;11.18;;;8.30;;
2680;SDS011;1350;42.134;24.708;2023-04-08T14:50:54;10.55;;;7.43;;